sensor_id;sensor_type;location;lat;lon;timestamp;temperature;humidity
66962;HTU21D;53897;51.126;5.868;2022-11-20T00:00:53;22.31;44.79
66962;HTU21D;53897;51.126;5.868;2022-11-20T00:03:19;22.29;44.40
66962;HTU21D;53897;51.126;5.868;2022-11-20T00:05:44;22.28;44.42
66962;HTU21D;53897;51.126;5.868;2022-11-20T00:08:11;22.26;44.31
66962;HTU21D;53897;51.126;5.868;2022-11-20T00:10:38;22.24;44.28
66962;HTU21D;53897;51.126;5.868;2022-11-20T00:13:04;22.23;44.24
66962;HTU21D;53897;51.126;5.868;2022-11-20T00:15:30;22.20;44.22
66962;HTU21D;53897;51.126;5.868;2022-11-20T00:17:56;22.17;44.19
66962;HTU21D;53897;51.126;5.868;2022-11-20T00:20:21;22.14;44.19
66962;HTU21D;53897;51.126;5.868;2022-11-20T00:22:47;22.12;44.19
66962;HTU21D;53897;51.126;5.868;2022-11-20T00:25:13;22.09;44.17
66962;HTU21D;53897;51.126;5.868;2022-11-20T00:27:39;22.08;44.16
66962;HTU21D;53897;51.126;5.868;2022-11-20T00:30:05;22.05;44.15
66962;HTU21D;53897;51.126;5.868;2022-11-20T00:32:31;22.02;44.13
66962;HTU21D;53897;51.126;5.868;2022-11-20T00:34:57;22.02;44.12
66962;HTU21D;53897;51.126;5.868;2022-11-20T00:37:22;21.98;44.11
66962;HTU21D;53897;51.126;5.868;2022-11-20T00:39:48;21.96;44.10
66962;HTU21D;53897;51.126;5.868;2022-11-20T00:42:14;21.95;44.09
66962;HTU21D;53897;51.126;5.868;2022-11-20T00:44:39;21.93;44.06
66962;HTU21D;53897;51.126;5.868;2022-11-20T00:47:05;21.91;44.06
66962;HTU21D;53897;51.126;5.868;2022-11-20T00:49:31;21.88;44.06
66962;HTU21D;53897;51.126;5.868;2022-11-20T00:51:57;21.85;44.05
66962;HTU21D;53897;51.126;5.868;2022-11-20T00:54:22;21.83;44.06
66962;HTU21D;53897;51.126;5.868;2022-11-20T00:56:48;21.82;44.06
66962;HTU21D;53897;51.126;5.868;2022-11-20T00:59:13;21.80;44.05
66962;HTU21D;53897;51.126;5.868;2022-11-20T01:01:39;21.78;44.04
66962;HTU21D;53897;51.126;5.868;2022-11-20T01:04:05;21.76;44.04
66962;HTU21D;53897;51.126;5.868;2022-11-20T01:06:36;21.75;44.06
66962;HTU21D;53897;51.126;5.868;2022-11-20T01:09:05;21.75;44.07
66962;HTU21D;53897;51.126;5.868;2022-11-20T01:11:35;21.72;44.09
66962;HTU21D;53897;51.126;5.868;2022-11-20T01:14:03;21.69;44.07
66962;HTU21D;53897;51.126;5.868;2022-11-20T01:16:35;21.67;44.08
66962;HTU21D;53897;51.126;5.868;2022-11-20T01:19:04;21.66;44.08
66962;HTU21D;53897;51.126;5.868;2022-11-20T01:21:32;21.64;44.07
66962;HTU21D;53897;51.126;5.868;2022-11-20T01:23:59;21.62;44.09
66962;HTU21D;53897;51.126;5.868;2022-11-20T01:26:29;21.61;44.08
66962;HTU21D;53897;51.126;5.868;2022-11-20T01:28:56;21.60;44.10
66962;HTU21D;53897;51.126;5.868;2022-11-20T01:31:25;21.57;44.10
66962;HTU21D;53897;51.126;5.868;2022-11-20T01:33:53;21.54;44.09
66962;HTU21D;53897;51.126;5.868;2022-11-20T01:36:22;21.55;44.06
66962;HTU21D;53897;51.126;5.868;2022-11-20T01:38:50;21.53;44.09
66962;HTU21D;53897;51.126;5.868;2022-11-20T01:41:16;21.51;44.08
66962;HTU21D;53897;51.126;5.868;2022-11-20T01:44:02;21.50;44.09
66962;HTU21D;53897;51.126;5.868;2022-11-20T01:46:34;21.47;44.09
66962;HTU21D;53897;51.126;5.868;2022-11-20T01:49:08;21.46;44.09
66962;HTU21D;53897;51.126;5.868;2022-11-20T01:51:44;21.45;44.11
66962;HTU21D;53897;51.126;5.868;2022-11-20T01:54:19;21.44;44.10
66962;HTU21D;53897;51.126;5.868;2022-11-20T01:56:48;21.42;44.09
66962;HTU21D;53897;51.126;5.868;2022-11-20T01:59:19;21.40;44.10
66962;HTU21D;53897;51.126;5.868;2022-11-20T02:01:46;21.39;44.09
66962;HTU21D;53897;51.126;5.868;2022-11-20T02:04:13;21.37;44.09
66962;HTU21D;53897;51.126;5.868;2022-11-20T02:09:12;21.35;44.11
66962;HTU21D;53897;51.126;5.868;2022-11-20T02:11:39;21.34;44.10
66962;HTU21D;53897;51.126;5.868;2022-11-20T02:14:05;21.32;44.11
66962;HTU21D;53897;51.126;5.868;2022-11-20T02:16:37;21.32;44.08
66962;HTU21D;53897;51.126;5.868;2022-11-20T02:19:16;21.30;44.08
66962;HTU21D;53897;51.126;5.868;2022-11-20T02:24:45;21.27;44.09
66962;HTU21D;53897;51.126;5.868;2022-11-20T02:27:16;21.25;44.09
66962;HTU21D;53897;51.126;5.868;2022-11-20T02:29:52;21.24;44.09
66962;HTU21D;53897;51.126;5.868;2022-11-20T02:32:24;21.23;44.06
66962;HTU21D;53897;51.126;5.868;2022-11-20T02:34:50;21.21;44.07
66962;HTU21D;53897;51.126;5.868;2022-11-20T02:37:16;21.22;44.09
66962;HTU21D;53897;51.126;5.868;2022-11-20T02:39:46;21.19;44.13
66962;HTU21D;53897;51.126;5.868;2022-11-20T02:42:12;21.17;44.14
66962;HTU21D;53897;51.126;5.868;2022-11-20T02:44:37;21.18;44.13
66962;HTU21D;53897;51.126;5.868;2022-11-20T02:47:03;21.16;44.14
66962;HTU21D;53897;51.126;5.868;2022-11-20T02:49:29;21.17;44.13
66962;HTU21D;53897;51.126;5.868;2022-11-20T02:51:54;21.14;44.13
66962;HTU21D;53897;51.126;5.868;2022-11-20T02:54:20;21.13;44.12
66962;HTU21D;53897;51.126;5.868;2022-11-20T02:56:46;21.11;44.12
66962;HTU21D;53897;51.126;5.868;2022-11-20T02:59:11;21.10;44.09
66962;HTU21D;53897;51.126;5.868;2022-11-20T03:01:37;21.09;44.10
66962;HTU21D;53897;51.126;5.868;2022-11-20T03:04:03;21.08;44.10
66962;HTU21D;53897;51.126;5.868;2022-11-20T03:06:29;21.06;44.11
66962;HTU21D;53897;51.126;5.868;2022-11-20T03:08:54;21.06;44.11
66962;HTU21D;53897;51.126;5.868;2022-11-20T03:11:20;21.05;44.09
66962;HTU21D;53897;51.126;5.868;2022-11-20T03:13:46;21.04;44.10
66962;HTU21D;53897;51.126;5.868;2022-11-20T03:16:20;21.02;44.09
66962;HTU21D;53897;51.126;5.868;2022-11-20T03:18:47;21.01;44.10
66962;HTU21D;53897;51.126;5.868;2022-11-20T03:21:14;21.01;44.09
66962;HTU21D;53897;51.126;5.868;2022-11-20T03:23:41;20.99;44.11
66962;HTU21D;53897;51.126;5.868;2022-11-20T03:26:18;20.99;44.11
66962;HTU21D;53897;51.126;5.868;2022-11-20T03:28:59;20.96;44.13
66962;HTU21D;53897;51.126;5.868;2022-11-20T03:31:28;20.95;44.12
66962;HTU21D;53897;51.126;5.868;2022-11-20T03:33:56;20.94;44.12
66962;HTU21D;53897;51.126;5.868;2022-11-20T03:36:23;20.95;44.06
66962;HTU21D;53897;51.126;5.868;2022-11-20T03:38:49;20.92;44.09
66962;HTU21D;53897;51.126;5.868;2022-11-20T03:41:23;20.90;44.11
66962;HTU21D;53897;51.126;5.868;2022-11-20T03:43:51;20.90;44.09
66962;HTU21D;53897;51.126;5.868;2022-11-20T03:46:17;20.88;44.11
66962;HTU21D;53897;51.126;5.868;2022-11-20T03:48:43;20.88;44.11
66962;HTU21D;53897;51.126;5.868;2022-11-20T03:51:18;20.86;44.10
66962;HTU21D;53897;51.126;5.868;2022-11-20T03:53:46;20.85;44.11
66962;HTU21D;53897;51.126;5.868;2022-11-20T03:56:14;20.84;44.11
66962;HTU21D;53897;51.126;5.868;2022-11-20T03:58:40;20.84;44.11
66962;HTU21D;53897;51.126;5.868;2022-11-20T04:03:34;20.81;44.11
66962;HTU21D;53897;51.126;5.868;2022-11-20T04:06:09;20.80;44.12
66962;HTU21D;53897;51.126;5.868;2022-11-20T04:08:36;20.80;44.12
66962;HTU21D;53897;51.126;5.868;2022-11-20T04:11:17;20.78;44.11
66962;HTU21D;53897;51.126;5.868;2022-11-20T04:13:47;20.76;44.11
66962;HTU21D;53897;51.126;5.868;2022-11-20T04:16:13;20.75;44.12
66962;HTU21D;53897;51.126;5.868;2022-11-20T04:18:39;20.75;44.12
66962;HTU21D;53897;51.126;5.868;2022-11-20T04:21:05;20.74;44.13
66962;HTU21D;53897;51.126;5.868;2022-11-20T04:23:32;20.74;44.11
66962;HTU21D;53897;51.126;5.868;2022-11-20T04:26:07;20.73;44.09
66962;HTU21D;53897;51.126;5.868;2022-11-20T04:28:32;20.72;44.10
66962;HTU21D;53897;51.126;5.868;2022-11-20T04:31:06;20.71;44.09
66962;HTU21D;53897;51.126;5.868;2022-11-20T04:33:33;20.70;44.09
66962;HTU21D;53897;51.126;5.868;2022-11-20T04:36:15;20.69;44.11
66962;HTU21D;53897;51.126;5.868;2022-11-20T04:38:42;20.69;44.13
66962;HTU21D;53897;51.126;5.868;2022-11-20T04:41:15;20.66;44.09
66962;HTU21D;53897;51.126;5.868;2022-11-20T04:43:41;20.65;44.08
66962;HTU21D;53897;51.126;5.868;2022-11-20T04:46:07;20.64;44.07
66962;HTU21D;53897;51.126;5.868;2022-11-20T04:48:34;20.63;44.06
66962;HTU21D;53897;51.126;5.868;2022-11-20T04:51:03;20.64;44.07
66962;HTU21D;53897;51.126;5.868;2022-11-20T04:53:30;20.63;44.05
66962;HTU21D;53897;51.126;5.868;2022-11-20T04:56:03;20.62;44.06
66962;HTU21D;53897;51.126;5.868;2022-11-20T04:58:29;20.60;44.04
66962;HTU21D;53897;51.126;5.868;2022-11-20T05:03:31;20.58;44.03
66962;HTU21D;53897;51.126;5.868;2022-11-20T05:06:00;20.58;44.03
66962;HTU21D;53897;51.126;5.868;2022-11-20T05:08:26;20.57;44.03
66962;HTU21D;53897;51.126;5.868;2022-11-20T05:10:52;20.57;44.00
66962;HTU21D;53897;51.126;5.868;2022-11-20T05:13:18;20.56;43.99
66962;HTU21D;53897;51.126;5.868;2022-11-20T05:15:43;20.56;43.97
66962;HTU21D;53897;51.126;5.868;2022-11-20T05:18:09;20.55;43.98
66962;HTU21D;53897;51.126;5.868;2022-11-20T05:20:35;20.54;43.96
66962;HTU21D;53897;51.126;5.868;2022-11-20T05:23:01;20.53;43.96
66962;HTU21D;53897;51.126;5.868;2022-11-20T05:25:27;20.51;43.96
66962;HTU21D;53897;51.126;5.868;2022-11-20T05:27:53;20.50;43.96
66962;HTU21D;53897;51.126;5.868;2022-11-20T05:30:19;20.49;43.95
66962;HTU21D;53897;51.126;5.868;2022-11-20T05:32:44;20.49;43.95
66962;HTU21D;53897;51.126;5.868;2022-11-20T05:35:10;20.48;43.94
66962;HTU21D;53897;51.126;5.868;2022-11-20T05:37:36;20.49;43.91
66962;HTU21D;53897;51.126;5.868;2022-11-20T05:40:01;20.47;43.84
66962;HTU21D;53897;51.126;5.868;2022-11-20T05:42:30;20.46;43.79
66962;HTU21D;53897;51.126;5.868;2022-11-20T05:45:00;20.45;43.83
66962;HTU21D;53897;51.126;5.868;2022-11-20T05:47:27;20.45;43.84
66962;HTU21D;53897;51.126;5.868;2022-11-20T05:49:53;20.42;43.89
66962;HTU21D;53897;51.126;5.868;2022-11-20T05:52:20;20.40;43.94
66962;HTU21D;53897;51.126;5.868;2022-11-20T05:54:45;20.37;43.98
66962;HTU21D;53897;51.126;5.868;2022-11-20T05:57:11;20.36;44.03
66962;HTU21D;53897;51.126;5.868;2022-11-20T05:59:37;20.36;44.06
66962;HTU21D;53897;51.126;5.868;2022-11-20T06:02:02;20.34;44.06
66962;HTU21D;53897;51.126;5.868;2022-11-20T06:04:28;20.34;44.07
66962;HTU21D;53897;51.126;5.868;2022-11-20T06:06:54;20.34;44.06
66962;HTU21D;53897;51.126;5.868;2022-11-20T06:09:19;20.33;44.08
66962;HTU21D;53897;51.126;5.868;2022-11-20T06:11:45;20.31;44.16
66962;HTU21D;53897;51.126;5.868;2022-11-20T06:14:11;20.33;44.16
66962;HTU21D;53897;51.126;5.868;2022-11-20T06:16:37;20.34;44.09
66962;HTU21D;53897;51.126;5.868;2022-11-20T06:19:02;20.33;44.03
66962;HTU21D;53897;51.126;5.868;2022-11-20T06:21:28;20.34;43.99
66962;HTU21D;53897;51.126;5.868;2022-11-20T06:23:53;20.31;44.02
66962;HTU21D;53897;51.126;5.868;2022-11-20T06:26:22;20.29;44.08
66962;HTU21D;53897;51.126;5.868;2022-11-20T06:28:48;20.25;44.16
66962;HTU21D;53897;51.126;5.868;2022-11-20T06:31:16;20.21;44.25
66962;HTU21D;53897;51.126;5.868;2022-11-20T06:33:43;20.20;44.29
66962;HTU21D;53897;51.126;5.868;2022-11-20T06:36:11;20.18;44.33
66962;HTU21D;53897;51.126;5.868;2022-11-20T06:38:38;20.20;44.36
66962;HTU21D;53897;51.126;5.868;2022-11-20T06:41:10;20.25;44.35
66962;HTU21D;53897;51.126;5.868;2022-11-20T06:43:36;20.31;44.38
66962;HTU21D;53897;51.126;5.868;2022-11-20T06:46:02;20.36;44.44
66962;HTU21D;53897;51.126;5.868;2022-11-20T06:48:29;20.42;44.46
66962;HTU21D;53897;51.126;5.868;2022-11-20T06:50:55;20.49;44.46
66962;HTU21D;53897;51.126;5.868;2022-11-20T06:53:22;20.58;44.45
66962;HTU21D;53897;51.126;5.868;2022-11-20T06:55:51;20.64;44.42
66962;HTU21D;53897;51.126;5.868;2022-11-20T06:58:18;20.72;44.38
66962;HTU21D;53897;51.126;5.868;2022-11-20T07:00:44;20.80;44.32
66962;HTU21D;53897;51.126;5.868;2022-11-20T07:03:11;20.88;44.25
66962;HTU21D;53897;51.126;5.868;2022-11-20T07:05:37;20.94;44.17
66962;HTU21D;53897;51.126;5.868;2022-11-20T07:08:07;21.02;44.08
66962;HTU21D;53897;51.126;5.868;2022-11-20T07:10:33;21.07;44.02
66962;HTU21D;53897;51.126;5.868;2022-11-20T07:13:00;21.15;43.95
66962;HTU21D;53897;51.126;5.868;2022-11-20T07:15:26;21.21;43.90
66962;HTU21D;53897;51.126;5.868;2022-11-20T07:17:52;21.27;43.84
66962;HTU21D;53897;51.126;5.868;2022-11-20T07:20:17;21.32;43.82
66962;HTU21D;53897;51.126;5.868;2022-11-20T07:22:43;21.37;43.75
66962;HTU21D;53897;51.126;5.868;2022-11-20T07:25:09;21.43;43.74
66962;HTU21D;53897;51.126;5.868;2022-11-20T07:27:36;21.48;43.71
66962;HTU21D;53897;51.126;5.868;2022-11-20T07:30:05;21.52;43.66
66962;HTU21D;53897;51.126;5.868;2022-11-20T07:32:30;21.58;43.65
66962;HTU21D;53897;51.126;5.868;2022-11-20T07:34:56;21.62;43.61
66962;HTU21D;53897;51.126;5.868;2022-11-20T07:37:22;21.66;43.57
66962;HTU21D;53897;51.126;5.868;2022-11-20T07:39:47;21.66;43.39
66962;HTU21D;53897;51.126;5.868;2022-11-20T07:42:13;21.69;42.96
66962;HTU21D;53897;51.126;5.868;2022-11-20T07:44:39;21.70;42.71
66962;HTU21D;53897;51.126;5.868;2022-11-20T07:47:04;21.72;42.81
66962;HTU21D;53897;51.126;5.868;2022-11-20T07:49:30;21.73;42.88
66962;HTU21D;53897;51.126;5.868;2022-11-20T07:51:56;21.74;42.92
66962;HTU21D;53897;51.126;5.868;2022-11-20T07:54:23;21.74;42.92
66962;HTU21D;53897;51.126;5.868;2022-11-20T07:56:48;21.77;42.91
66962;HTU21D;53897;51.126;5.868;2022-11-20T07:59:15;21.78;42.88
66962;HTU21D;53897;51.126;5.868;2022-11-20T08:01:42;21.79;42.97
66962;HTU21D;53897;51.126;5.868;2022-11-20T08:04:09;21.80;42.91
66962;HTU21D;53897;51.126;5.868;2022-11-20T08:06:35;21.81;42.93
66962;HTU21D;53897;51.126;5.868;2022-11-20T08:09:01;21.83;42.90
66962;HTU21D;53897;51.126;5.868;2022-11-20T08:11:27;21.84;42.86
66962;HTU21D;53897;51.126;5.868;2022-11-20T08:14:11;21.84;42.84
66962;HTU21D;53897;51.126;5.868;2022-11-20T08:16:45;21.87;42.83
66962;HTU21D;53897;51.126;5.868;2022-11-20T08:19:16;21.87;42.85
66962;HTU21D;53897;51.126;5.868;2022-11-20T08:21:43;21.87;42.86
66962;HTU21D;53897;51.126;5.868;2022-11-20T08:24:10;21.89;42.86
66962;HTU21D;53897;51.126;5.868;2022-11-20T08:26:38;21.89;42.76
66962;HTU21D;53897;51.126;5.868;2022-11-20T08:29:04;21.90;42.64
66962;HTU21D;53897;51.126;5.868;2022-11-20T08:31:31;21.90;42.73
66962;HTU21D;53897;51.126;5.868;2022-11-20T08:33:57;21.91;42.70
66962;HTU21D;53897;51.126;5.868;2022-11-20T08:36:24;21.91;42.71
66962;HTU21D;53897;51.126;5.868;2022-11-20T08:38:54;21.92;42.68
66962;HTU21D;53897;51.126;5.868;2022-11-20T08:41:21;21.92;42.74
66962;HTU21D;53897;51.126;5.868;2022-11-20T08:43:53;21.94;42.76
66962;HTU21D;53897;51.126;5.868;2022-11-20T08:46:20;21.94;42.77
66962;HTU21D;53897;51.126;5.868;2022-11-20T08:48:46;21.96;42.76
66962;HTU21D;53897;51.126;5.868;2022-11-20T08:51:12;21.97;42.79
66962;HTU21D;53897;51.126;5.868;2022-11-20T08:53:39;21.97;42.77
66962;HTU21D;53897;51.126;5.868;2022-11-20T08:56:05;21.98;42.61
66962;HTU21D;53897;51.126;5.868;2022-11-20T08:58:31;22.01;42.66
66962;HTU21D;53897;51.126;5.868;2022-11-20T09:00:56;22.01;42.62
66962;HTU21D;53897;51.126;5.868;2022-11-20T09:03:22;22.03;42.61
66962;HTU21D;53897;51.126;5.868;2022-11-20T09:05:48;22.04;42.60
66962;HTU21D;53897;51.126;5.868;2022-11-20T09:08:13;22.06;42.51
66962;HTU21D;53897;51.126;5.868;2022-11-20T09:10:39;22.07;42.55
66962;HTU21D;53897;51.126;5.868;2022-11-20T09:13:05;22.09;42.55
66962;HTU21D;53897;51.126;5.868;2022-11-20T09:15:31;22.10;42.54
66962;HTU21D;53897;51.126;5.868;2022-11-20T09:18:00;22.11;42.54
66962;HTU21D;53897;51.126;5.868;2022-11-20T09:20:27;22.12;42.52
66962;HTU21D;53897;51.126;5.868;2022-11-20T09:22:54;22.14;42.49
66962;HTU21D;53897;51.126;5.868;2022-11-20T09:25:20;22.16;42.47
66962;HTU21D;53897;51.126;5.868;2022-11-20T09:27:45;22.17;42.46
66962;HTU21D;53897;51.126;5.868;2022-11-20T09:30:15;22.17;42.45
66962;HTU21D;53897;51.126;5.868;2022-11-20T09:32:42;22.18;42.47
66962;HTU21D;53897;51.126;5.868;2022-11-20T09:35:09;22.18;42.44
66962;HTU21D;53897;51.126;5.868;2022-11-20T09:37:35;22.20;42.39
66962;HTU21D;53897;51.126;5.868;2022-11-20T09:40:01;22.18;42.40
66962;HTU21D;53897;51.126;5.868;2022-11-20T09:43:20;22.19;42.40
66962;HTU21D;53897;51.126;5.868;2022-11-20T09:48:07;22.20;42.23
66962;HTU21D;53897;51.126;5.868;2022-11-20T09:53:44;22.19;42.05
66962;HTU21D;53897;51.126;5.868;2022-11-20T09:56:11;22.18;42.19
66962;HTU21D;53897;51.126;5.868;2022-11-20T09:58:52;22.19;42.19
66962;HTU21D;53897;51.126;5.868;2022-11-20T10:01:26;22.20;42.21
66962;HTU21D;53897;51.126;5.868;2022-11-20T10:04:12;22.20;42.13
66962;HTU21D;53897;51.126;5.868;2022-11-20T10:09:35;22.21;42.20
66962;HTU21D;53897;51.126;5.868;2022-11-20T10:26:03;22.24;42.24
66962;HTU21D;53897;51.126;5.868;2022-11-20T10:28:40;22.25;42.26
66962;HTU21D;53897;51.126;5.868;2022-11-20T10:31:17;22.24;42.23
66962;HTU21D;53897;51.126;5.868;2022-11-20T10:33:47;22.26;42.23
66962;HTU21D;53897;51.126;5.868;2022-11-20T10:36:30;22.25;42.10
66962;HTU21D;53897;51.126;5.868;2022-11-20T10:39:17;22.26;41.90
66962;HTU21D;53897;51.126;5.868;2022-11-20T10:41:50;22.25;42.06
66962;HTU21D;53897;51.126;5.868;2022-11-20T10:44:25;22.27;42.06
66962;HTU21D;53897;51.126;5.868;2022-11-20T10:47:17;22.28;42.11
66962;HTU21D;53897;51.126;5.868;2022-11-20T10:49:51;22.27;42.11
66962;HTU21D;53897;51.126;5.868;2022-11-20T10:52:47;22.29;42.16
66962;HTU21D;53897;51.126;5.868;2022-11-20T10:55:28;22.28;42.10
66962;HTU21D;53897;51.126;5.868;2022-11-20T10:58:17;22.28;41.64
66962;HTU21D;53897;51.126;5.868;2022-11-20T11:00:47;22.29;41.78
66962;HTU21D;53897;51.126;5.868;2022-11-20T11:03:31;22.32;41.94
66962;HTU21D;53897;51.126;5.868;2022-11-20T11:06:07;22.31;41.96
66962;HTU21D;53897;51.126;5.868;2022-11-20T11:08:40;22.32;42.00
66962;HTU21D;53897;51.126;5.868;2022-11-20T11:11:29;22.33;42.03
66962;HTU21D;53897;51.126;5.868;2022-11-20T11:14:12;22.34;42.10
66962;HTU21D;53897;51.126;5.868;2022-11-20T11:16:56;22.34;42.27
66962;HTU21D;53897;51.126;5.868;2022-11-20T11:19:23;22.35;42.38
66962;HTU21D;53897;51.126;5.868;2022-11-20T11:21:53;22.35;42.48
66962;HTU21D;53897;51.126;5.868;2022-11-20T11:24:27;22.36;42.56
66962;HTU21D;53897;51.126;5.868;2022-11-20T11:27:00;22.36;42.41
66962;HTU21D;53897;51.126;5.868;2022-11-20T11:29:30;22.36;42.39
66962;HTU21D;53897;51.126;5.868;2022-11-20T11:32:22;22.37;42.42
66962;HTU21D;53897;51.126;5.868;2022-11-20T11:35:05;22.38;42.40
66962;HTU21D;53897;51.126;5.868;2022-11-20T11:37:38;22.37;42.48
66962;HTU21D;53897;51.126;5.868;2022-11-20T11:40:06;22.38;42.71
66962;HTU21D;53897;51.126;5.868;2022-11-20T11:42:32;22.38;42.86
66962;HTU21D;53897;51.126;5.868;2022-11-20T11:45:00;22.38;42.77
66962;HTU21D;53897;51.126;5.868;2022-11-20T11:47:32;22.37;42.87
66962;HTU21D;53897;51.126;5.868;2022-11-20T11:58:41;22.37;42.86
66962;HTU21D;53897;51.126;5.868;2022-11-20T12:06:35;22.37;42.95
66962;HTU21D;53897;51.126;5.868;2022-11-20T12:09:05;22.38;42.90
66962;HTU21D;53897;51.126;5.868;2022-11-20T12:14:28;22.37;42.87
66962;HTU21D;53897;51.126;5.868;2022-11-20T12:16:56;22.37;42.86
66962;HTU21D;53897;51.126;5.868;2022-11-20T12:19:23;22.38;42.84
66962;HTU21D;53897;51.126;5.868;2022-11-20T12:22:35;22.39;42.81
66962;HTU21D;53897;51.126;5.868;2022-11-20T12:25:07;22.39;42.76
66962;HTU21D;53897;51.126;5.868;2022-11-20T12:27:58;22.39;42.74
66962;HTU21D;53897;51.126;5.868;2022-11-20T12:30:33;22.39;42.75
66962;HTU21D;53897;51.126;5.868;2022-11-20T12:33:17;22.41;42.74
66962;HTU21D;53897;51.126;5.868;2022-11-20T12:53:30;22.44;42.64
66962;HTU21D;53897;51.126;5.868;2022-11-20T12:56:21;22.43;42.62
66962;HTU21D;53897;51.126;5.868;2022-11-20T12:59:07;22.44;42.65
66962;HTU21D;53897;51.126;5.868;2022-11-20T13:07:43;22.46;42.58
66962;HTU21D;53897;51.126;5.868;2022-11-20T13:10:37;22.44;42.57
66962;HTU21D;53897;51.126;5.868;2022-11-20T13:13:44;22.44;42.56
66962;HTU21D;53897;51.126;5.868;2022-11-20T13:16:58;22.47;42.53
66962;HTU21D;53897;51.126;5.868;2022-11-20T13:19:25;22.47;42.52
66962;HTU21D;53897;51.126;5.868;2022-11-20T13:21:52;22.44;42.58
66962;HTU21D;53897;51.126;5.868;2022-11-20T13:29:44;22.47;42.49
66962;HTU21D;53897;51.126;5.868;2022-11-20T13:34:39;22.47;42.65
66962;HTU21D;53897;51.126;5.868;2022-11-20T13:37:05;22.48;42.65
66962;HTU21D;53897;51.126;5.868;2022-11-20T13:39:33;22.49;42.60
66962;HTU21D;53897;51.126;5.868;2022-11-20T13:42:02;22.48;42.62
66962;HTU21D;53897;51.126;5.868;2022-11-20T13:44:51;22.49;42.68
66962;HTU21D;53897;51.126;5.868;2022-11-20T13:47:27;22.48;42.67
66962;HTU21D;53897;51.126;5.868;2022-11-20T13:49:57;22.50;42.69
66962;HTU21D;53897;51.126;5.868;2022-11-20T13:55:38;22.50;42.74
66962;HTU21D;53897;51.126;5.868;2022-11-20T14:00:50;22.50;42.75
66962;HTU21D;53897;51.126;5.868;2022-11-20T14:03:23;22.52;42.77
66962;HTU21D;53897;51.126;5.868;2022-11-20T14:06:03;22.52;42.76
66962;HTU21D;53897;51.126;5.868;2022-11-20T14:08:47;22.51;42.74
66962;HTU21D;53897;51.126;5.868;2022-11-20T14:11:19;22.54;42.93
66962;HTU21D;53897;51.126;5.868;2022-11-20T14:13:59;22.55;43.36
66962;HTU21D;53897;51.126;5.868;2022-11-20T14:16:27;22.54;43.56
66962;HTU21D;53897;51.126;5.868;2022-11-20T14:18:55;22.56;44.03
66962;HTU21D;53897;51.126;5.868;2022-11-20T14:21:27;22.56;44.10
66962;HTU21D;53897;51.126;5.868;2022-11-20T14:24:05;22.55;44.19
66962;HTU21D;53897;51.126;5.868;2022-11-20T14:26:32;22.55;44.29
66962;HTU21D;53897;51.126;5.868;2022-11-20T14:28:59;22.56;44.48
66962;HTU21D;53897;51.126;5.868;2022-11-20T14:31:27;22.57;44.87
66962;HTU21D;53897;51.126;5.868;2022-11-20T14:33:55;22.60;45.24
66962;HTU21D;53897;51.126;5.868;2022-11-20T14:36:23;22.61;45.29
66962;HTU21D;53897;51.126;5.868;2022-11-20T14:38:51;22.62;45.45
66962;HTU21D;53897;51.126;5.868;2022-11-20T14:41:22;22.63;45.77
66962;HTU21D;53897;51.126;5.868;2022-11-20T14:43:56;22.63;45.67
66962;HTU21D;53897;51.126;5.868;2022-11-20T14:46:23;22.64;45.63
66962;HTU21D;53897;51.126;5.868;2022-11-20T14:48:56;22.64;45.54
66962;HTU21D;53897;51.126;5.868;2022-11-20T14:51:35;22.63;45.45
66962;HTU21D;53897;51.126;5.868;2022-11-20T14:54:19;22.64;45.42
66962;HTU21D;53897;51.126;5.868;2022-11-20T14:57:00;22.65;45.32
66962;HTU21D;53897;51.126;5.868;2022-11-20T14:59:32;22.65;45.22
66962;HTU21D;53897;51.126;5.868;2022-11-20T15:02:08;22.65;45.19
66962;HTU21D;53897;51.126;5.868;2022-11-20T15:04:47;22.65;45.19
66962;HTU21D;53897;51.126;5.868;2022-11-20T15:07:31;22.66;45.09
66962;HTU21D;53897;51.126;5.868;2022-11-20T15:10:08;22.67;45.00
66962;HTU21D;53897;51.126;5.868;2022-11-20T15:12:40;22.67;44.97
66962;HTU21D;53897;51.126;5.868;2022-11-20T15:15:12;22.66;44.84
66962;HTU21D;53897;51.126;5.868;2022-11-20T15:17:41;22.68;44.78
66962;HTU21D;53897;51.126;5.868;2022-11-20T15:20:16;22.68;44.77
66962;HTU21D;53897;51.126;5.868;2022-11-20T15:22:42;22.69;44.70
66962;HTU21D;53897;51.126;5.868;2022-11-20T15:25:14;22.67;44.62
66962;HTU21D;53897;51.126;5.868;2022-11-20T15:27:42;22.68;44.58
66962;HTU21D;53897;51.126;5.868;2022-11-20T15:30:26;22.68;44.54
66962;HTU21D;53897;51.126;5.868;2022-11-20T15:32:53;22.67;44.51
66962;HTU21D;53897;51.126;5.868;2022-11-20T15:35:19;22.68;44.47
66962;HTU21D;53897;51.126;5.868;2022-11-20T15:37:44;22.68;44.42
66962;HTU21D;53897;51.126;5.868;2022-11-20T15:40:10;22.68;44.36
66962;HTU21D;53897;51.126;5.868;2022-11-20T15:42:36;22.68;44.43
66962;HTU21D;53897;51.126;5.868;2022-11-20T15:45:02;22.66;44.43
66962;HTU21D;53897;51.126;5.868;2022-11-20T15:47:34;22.67;44.38
66962;HTU21D;53897;51.126;5.868;2022-11-20T15:50:01;22.68;44.37
66962;HTU21D;53897;51.126;5.868;2022-11-20T15:52:26;22.68;44.29
66962;HTU21D;53897;51.126;5.868;2022-11-20T15:54:52;22.67;44.17
66962;HTU21D;53897;51.126;5.868;2022-11-20T15:57:18;22.67;44.06
66962;HTU21D;53897;51.126;5.868;2022-11-20T15:59:43;22.62;44.17
66962;HTU21D;53897;51.126;5.868;2022-11-20T16:02:14;22.60;44.27
66962;HTU21D;53897;51.126;5.868;2022-11-20T16:04:41;22.56;44.37
66962;HTU21D;53897;51.126;5.868;2022-11-20T16:07:07;22.52;44.45
66962;HTU21D;53897;51.126;5.868;2022-11-20T16:09:33;22.52;44.33
66962;HTU21D;53897;51.126;5.868;2022-11-20T16:11:59;22.54;44.21
66962;HTU21D;53897;51.126;5.868;2022-11-20T16:14:25;22.54;44.26
66962;HTU21D;53897;51.126;5.868;2022-11-20T16:17:10;22.54;44.23
66962;HTU21D;53897;51.126;5.868;2022-11-20T16:19:36;22.54;44.09
66962;HTU21D;53897;51.126;5.868;2022-11-20T16:22:01;22.54;43.98
66962;HTU21D;53897;51.126;5.868;2022-11-20T16:24:27;22.54;44.00
66962;HTU21D;53897;51.126;5.868;2022-11-20T16:26:53;22.52;44.00
66962;HTU21D;53897;51.126;5.868;2022-11-20T16:29:19;22.52;43.93
66962;HTU21D;53897;51.126;5.868;2022-11-20T16:31:45;22.51;44.10
66962;HTU21D;53897;51.126;5.868;2022-11-20T16:34:11;22.51;44.32
66962;HTU21D;53897;51.126;5.868;2022-11-20T16:36:39;22.51;44.38
66962;HTU21D;53897;51.126;5.868;2022-11-20T16:39:05;22.51;44.69
66962;HTU21D;53897;51.126;5.868;2022-11-20T16:41:33;22.52;45.18
66962;HTU21D;53897;51.126;5.868;2022-11-20T16:44:01;22.53;45.48
66962;HTU21D;53897;51.126;5.868;2022-11-20T16:46:30;22.55;45.62
66962;HTU21D;53897;51.126;5.868;2022-11-20T16:49:00;22.55;45.72
66962;HTU21D;53897;51.126;5.868;2022-11-20T16:51:28;22.56;45.81
66962;HTU21D;53897;51.126;5.868;2022-11-20T16:53:55;22.57;45.81
66962;HTU21D;53897;51.126;5.868;2022-11-20T16:56:25;22.58;45.80
66962;HTU21D;53897;51.126;5.868;2022-11-20T16:58:54;22.58;45.79